createdAt,value
2023-03-12T00:02:15.180Z,1.00
2023-03-12T00:04:42.209Z,1.05
2023-03-12T00:07:09.324Z,0.90
2023-03-12T00:09:37.948Z,1.00
2023-03-12T00:12:05.928Z,0.90
2023-03-12T00:14:32.966Z,0.80
2023-03-12T00:16:59.995Z,1.00
2023-03-12T00:19:27.107Z,0.88
2023-03-12T00:21:54.102Z,0.90
2023-03-12T00:24:21.282Z,0.88
2023-03-12T00:26:48.389Z,1.10
2023-03-12T00:29:15.312Z,1.00
2023-03-12T00:31:42.248Z,1.10
2023-03-12T00:34:12.064Z,0.90
2023-03-12T00:36:40.966Z,1.10
2023-03-12T00:39:08.133Z,1.00
2023-03-12T00:41:35.257Z,0.80
2023-03-12T00:44:02.549Z,1.00
2023-03-12T00:46:29.880Z,1.30
2023-03-12T00:48:56.724Z,1.00
2023-03-12T00:51:23.591Z,1.17
2023-03-12T00:53:50.592Z,1.00
2023-03-12T00:56:17.473Z,1.20
2023-03-12T00:58:44.505Z,1.00
2023-03-12T01:01:11.536Z,0.90
2023-03-12T01:03:38.908Z,1.20
2023-03-12T01:06:06.957Z,1.08
2023-03-12T01:08:33.905Z,1.40
2023-03-12T01:11:00.987Z,1.05
2023-03-12T01:13:28.299Z,1.23
2023-03-12T01:15:55.263Z,1.20
2023-03-12T01:18:22.358Z,1.00
2023-03-12T01:20:49.845Z,1.08
2023-03-12T01:23:16.895Z,1.10
2023-03-12T01:25:43.753Z,1.30
2023-03-12T01:28:10.762Z,1.30
2023-03-12T01:30:37.650Z,1.20
2023-03-12T01:33:04.728Z,1.40
2023-03-12T01:35:35.569Z,1.50
2023-03-12T01:38:02.424Z,1.50
2023-03-12T01:40:29.564Z,1.30
2023-03-12T01:42:58.511Z,1.35
2023-03-12T01:45:59.471Z,1.50
2023-03-12T01:48:29.487Z,1.63
2023-03-12T01:50:56.429Z,1.23
2023-03-12T01:53:23.753Z,1.40
2023-03-12T01:55:51.418Z,1.40
2023-03-12T01:58:19.045Z,1.55
2023-03-12T02:00:46.270Z,1.42
2023-03-12T02:03:14.117Z,1.30
2023-03-12T02:05:51.294Z,1.50
2023-03-12T02:08:18.941Z,1.40
2023-03-12T02:10:46.867Z,1.55
2023-03-12T02:13:14.207Z,1.40
2023-03-12T02:15:41.147Z,1.42
2023-03-12T02:18:11.811Z,1.70
2023-03-12T02:20:56.541Z,1.45
2023-03-12T02:23:52.449Z,1.38
2023-03-12T02:26:21.974Z,1.38
2023-03-12T02:28:50.577Z,1.58
2023-03-12T02:31:24.234Z,1.70
2023-03-12T02:33:53.282Z,1.50
2023-03-12T02:36:20.857Z,1.63
2023-03-12T02:38:53.082Z,1.50
2023-03-12T02:41:32.056Z,1.60
2023-03-12T02:44:05.624Z,1.40
2023-03-12T02:46:45.746Z,1.60
2023-03-12T02:49:14.201Z,1.30
2023-03-12T02:51:42.996Z,1.45
2023-03-12T02:54:11.215Z,1.33
2023-03-12T02:56:38.449Z,1.50
2023-03-12T02:59:06.908Z,1.27
2023-03-12T03:01:37.009Z,1.35
2023-03-12T03:04:05.507Z,1.57
2023-03-12T03:06:32.804Z,1.35
2023-03-12T03:09:00.140Z,1.25
2023-03-12T03:11:27.221Z,1.50
2023-03-12T03:13:55.130Z,1.50
2023-03-12T03:16:22.738Z,1.60
2023-03-12T03:18:49.614Z,1.27
2023-03-12T03:21:18.173Z,1.45
2023-03-12T03:23:47.475Z,1.38
2023-03-12T03:26:15.951Z,1.50
2023-03-12T03:31:08.993Z,1.30
2023-03-12T03:33:37.805Z,1.30
2023-03-12T03:36:06.765Z,1.40
2023-03-12T03:38:35.075Z,1.33
2023-03-12T03:41:02.411Z,1.30
2023-03-12T03:43:29.303Z,1.35
2023-03-12T03:46:01.486Z,1.20
2023-03-12T03:48:28.484Z,1.55
2023-03-12T03:50:55.642Z,1.40
2023-03-12T03:53:22.522Z,1.23
2023-03-12T03:55:49.331Z,1.50
2023-03-12T03:58:16.656Z,1.30
2023-03-12T04:00:47.304Z,1.35
2023-03-12T04:03:14.302Z,1.40
2023-03-12T04:05:45.455Z,1.23
2023-03-12T04:10:40.554Z,1.40
2023-03-12T04:13:07.666Z,1.30
2023-03-12T04:15:34.739Z,1.40
2023-03-12T04:18:01.612Z,1.10
2023-03-12T04:20:28.520Z,1.40
2023-03-12T04:22:55.367Z,1.38
2023-03-12T04:25:22.193Z,1.27
2023-03-12T04:27:49.038Z,1.27
2023-03-12T04:30:15.922Z,1.30
2023-03-12T04:32:42.822Z,1.27
2023-03-12T04:35:09.801Z,1.25
2023-03-12T04:37:36.643Z,1.40
2023-03-12T04:40:07.700Z,1.40
2023-03-12T04:42:35.807Z,1.60
2023-03-12T04:45:06.754Z,1.30
2023-03-12T04:47:34.233Z,1.38
2023-03-12T04:50:01.472Z,1.38
2023-03-12T04:52:28.587Z,1.50
2023-03-12T04:54:56.380Z,1.30
2023-03-12T04:57:23.206Z,1.60
2023-03-12T04:59:49.994Z,1.70
2023-03-12T05:02:16.827Z,1.40
2023-03-12T05:04:43.748Z,1.83
2023-03-12T05:07:10.685Z,1.70
2023-03-12T05:09:37.566Z,1.42
2023-03-12T05:12:04.640Z,1.67
2023-03-12T05:14:31.442Z,1.77
2023-03-12T05:16:58.237Z,1.42
2023-03-12T05:19:25.069Z,1.60
2023-03-12T05:21:52.229Z,1.50
2023-03-12T05:24:19.464Z,1.50
2023-03-12T05:26:46.379Z,2.08
2023-03-12T05:29:13.307Z,1.83
2023-03-12T05:31:40.251Z,1.70
2023-03-12T05:34:07.295Z,1.63
2023-03-12T05:36:34.661Z,1.85
2023-03-12T05:39:01.609Z,1.90
2023-03-12T05:41:29.968Z,1.90
2023-03-12T05:43:57.953Z,1.85
2023-03-12T05:46:26.129Z,1.70
2023-03-12T05:48:53.875Z,1.65
2023-03-12T05:51:21.396Z,1.90
2023-03-12T05:53:48.275Z,1.70
2023-03-12T05:56:17.492Z,1.90
2023-03-12T05:58:45.095Z,1.67
2023-03-12T06:01:21.026Z,1.90
2023-03-12T06:03:48.006Z,2.10
2023-03-12T06:06:15.055Z,1.90
2023-03-12T06:08:42.911Z,1.88
2023-03-12T06:11:10.350Z,1.98
2023-03-12T06:13:37.508Z,2.63
2023-03-12T06:16:15.744Z,2.28
2023-03-12T06:18:42.661Z,1.90
2023-03-12T06:21:09.481Z,2.10
2023-03-12T06:23:36.419Z,2.08
2023-03-12T06:26:03.479Z,1.98
2023-03-12T06:28:30.690Z,1.80
2023-03-12T06:30:57.580Z,2.05
2023-03-12T06:33:24.510Z,1.95
2023-03-12T06:35:58.060Z,2.53
2023-03-12T06:38:26.052Z,3.90
2023-03-12T06:40:57.410Z,3.75
2023-03-12T06:43:25.900Z,3.08
2023-03-12T06:45:55.019Z,5.15
2023-03-12T06:48:22.905Z,3.40
2023-03-12T06:50:50.216Z,3.08
2023-03-12T06:53:17.166Z,4.10
2023-03-12T06:55:45.344Z,3.22
2023-03-12T06:58:12.442Z,3.17
2023-03-12T07:00:39.679Z,5.00
2023-03-12T07:03:06.906Z,3.97
2023-03-12T07:05:33.749Z,3.85
2023-03-12T07:08:00.633Z,4.35
2023-03-12T07:10:30.218Z,4.20
2023-03-12T07:12:57.639Z,3.88
2023-03-12T07:15:24.755Z,4.43
2023-03-12T07:17:51.901Z,3.15
2023-03-12T07:20:18.985Z,3.45
2023-03-12T07:22:45.934Z,3.25
2023-03-12T07:25:12.906Z,3.03
2023-03-12T07:27:39.803Z,2.63
2023-03-12T07:30:07.340Z,2.38
2023-03-12T07:32:35.684Z,3.83
2023-03-12T07:35:04.171Z,3.70
2023-03-12T07:37:31.402Z,5.45
2023-03-12T07:39:58.475Z,5.22
2023-03-12T07:42:25.727Z,3.80
2023-03-12T07:44:52.875Z,3.50
2023-03-12T07:47:23.933Z,5.25
2023-03-12T07:49:51.485Z,3.10
2023-03-12T07:52:20.528Z,3.28
2023-03-12T07:54:47.968Z,3.90
2023-03-12T07:57:15.146Z,6.28
2023-03-12T07:59:42.173Z,5.45
2023-03-12T08:02:10.998Z,4.75
2023-03-12T08:04:38.034Z,5.30
2023-03-12T08:07:08.004Z,5.57
2023-03-12T08:09:36.148Z,5.35
2023-03-12T08:12:03.153Z,4.53
2023-03-12T08:14:32.020Z,5.00
2023-03-12T08:17:00.287Z,5.13
2023-03-12T08:19:27.958Z,5.05
2023-03-12T08:21:55.146Z,5.00
2023-03-12T08:24:22.631Z,4.78
2023-03-12T08:26:49.842Z,4.50
2023-03-12T08:29:17.831Z,3.67
2023-03-12T08:32:01.473Z,3.60
2023-03-12T08:34:30.710Z,3.20
2023-03-12T08:36:57.699Z,3.50
2023-03-12T08:39:24.565Z,3.00
2023-03-12T08:41:55.630Z,3.25
2023-03-12T08:44:26.043Z,2.63
2023-03-12T08:46:53.502Z,2.70
2023-03-12T08:49:21.654Z,2.50
2023-03-12T08:51:49.277Z,2.50
2023-03-12T08:54:16.333Z,2.05
2023-03-12T08:56:44.108Z,2.42
2023-03-12T08:59:12.010Z,2.25
2023-03-12T09:01:43.695Z,2.15
2023-03-12T09:04:11.635Z,2.13
2023-03-12T09:06:38.836Z,2.25
2023-03-12T09:09:06.135Z,1.98
2023-03-12T09:11:34.144Z,2.55
2023-03-12T09:14:39.522Z,2.10
2023-03-12T09:16:49.779Z,2.00
2023-03-12T09:19:17.583Z,1.70
2023-03-12T09:21:44.854Z,1.83
2023-03-12T09:24:12.209Z,1.95
2023-03-12T09:26:39.342Z,1.75
2023-03-12T09:29:06.417Z,1.60
2023-03-12T09:31:34.928Z,1.58
2023-03-12T09:34:02.330Z,1.70
2023-03-12T09:36:29.562Z,1.58
2023-03-12T09:38:56.640Z,1.55
2023-03-12T09:41:30.506Z,1.25
2023-03-12T09:44:02.604Z,1.17
2023-03-12T09:47:02.597Z,1.33
2023-03-12T09:49:42.288Z,1.17
2023-03-12T09:52:39.959Z,1.83
2023-03-12T09:55:20.308Z,1.45
2023-03-12T09:57:51.054Z,1.40
2023-03-12T10:00:22.322Z,1.60
2023-03-12T10:03:07.949Z,1.60
2023-03-12T10:05:43.557Z,2.33
2023-03-12T10:08:24.392Z,1.63
2023-03-12T10:11:24.061Z,1.98
2023-03-12T10:13:57.190Z,2.30
2023-03-12T10:16:47.920Z,1.92
2023-03-12T10:19:50.793Z,2.05
2023-03-12T10:22:33.355Z,2.38
2023-03-12T10:25:30.666Z,1.35
2023-03-12T10:28:20.120Z,1.30
2023-03-12T10:30:54.761Z,1.23
2023-03-12T10:33:26.506Z,1.17
2023-03-12T10:35:55.046Z,0.95
2023-03-12T10:38:30.332Z,0.88
2023-03-12T10:40:57.228Z,1.08
2023-03-12T10:43:24.539Z,1.23
2023-03-12T10:46:30.439Z,1.23
2023-03-12T10:49:37.767Z,1.40
2023-03-12T10:52:22.093Z,1.90
2023-03-12T10:54:51.829Z,2.90
2023-03-12T10:57:21.226Z,2.55
2023-03-12T10:59:49.106Z,2.60
2023-03-12T11:02:43.569Z,2.58
2023-03-12T11:05:23.986Z,2.45
2023-03-12T11:07:51.967Z,3.50
2023-03-12T11:10:25.550Z,3.35
2023-03-12T11:13:00.026Z,3.78
2023-03-12T11:15:57.242Z,3.20
2023-03-12T11:18:26.676Z,3.30
2023-03-12T11:21:12.445Z,3.75
2023-03-12T11:24:32.333Z,3.70
2023-03-12T11:27:21.402Z,3.40
2023-03-12T11:29:51.139Z,3.35
2023-03-12T11:32:28.992Z,3.33
2023-03-12T11:34:56.919Z,3.50
2023-03-12T11:37:30.118Z,3.85
2023-03-12T11:40:21.769Z,3.80
2023-03-12T11:42:51.483Z,4.70
2023-03-12T11:45:42.847Z,6.13
2023-03-12T11:48:28.268Z,3.92
2023-03-12T11:51:04.082Z,3.75
2023-03-12T11:53:48.999Z,6.28
2023-03-12T11:56:19.048Z,5.45
2023-03-12T11:59:34.384Z,5.22
2023-03-12T12:02:38.352Z,4.10
2023-03-12T12:05:29.642Z,6.28
2023-03-12T12:10:36.147Z,5.15
2023-03-12T12:13:08.589Z,4.50
2023-03-12T12:15:55.397Z,3.88
2023-03-12T12:18:39.315Z,4.25
2023-03-12T12:21:15.286Z,3.42
2023-03-12T12:23:42.272Z,3.58
2023-03-12T12:26:41.554Z,3.70
2023-03-12T12:29:31.678Z,3.47
2023-03-12T12:32:01.925Z,2.95
2023-03-12T12:34:41.030Z,2.80
2023-03-12T12:37:20.118Z,2.97
2023-03-12T12:39:54.995Z,2.80
2023-03-12T12:42:28.312Z,2.75
2023-03-12T12:44:59.190Z,2.42
2023-03-12T12:47:40.957Z,2.50
2023-03-12T12:50:18.892Z,2.63
2023-03-12T12:52:52.799Z,2.10
2023-03-12T12:55:35.539Z,2.08
2023-03-12T12:58:45.685Z,1.90
2023-03-12T13:01:15.433Z,1.80
2023-03-12T13:03:43.820Z,2.05
2023-03-12T13:06:11.725Z,2.53
2023-03-12T13:08:44.214Z,2.30
2023-03-12T13:11:20.473Z,2.20
2023-03-12T13:14:04.080Z,2.60
2023-03-12T13:16:38.158Z,2.78
2023-03-12T13:19:14.479Z,2.63
2023-03-12T13:21:59.854Z,3.22
2023-03-12T13:24:30.978Z,3.95
2023-03-12T13:29:31.610Z,2.95
2023-03-12T13:32:00.119Z,2.78
2023-03-12T13:34:28.280Z,2.70
2023-03-12T13:37:02.238Z,2.90
2023-03-12T13:39:29.303Z,3.58
2023-03-12T13:41:57.900Z,2.90
2023-03-12T13:44:40.656Z,2.47
2023-03-12T13:47:30.859Z,3.08
2023-03-12T13:50:04.132Z,2.63
2023-03-12T13:52:34.537Z,2.78
2023-03-12T13:55:03.345Z,2.00
2023-03-12T13:57:30.710Z,2.25
2023-03-12T13:59:58.873Z,1.80
2023-03-12T14:02:33.284Z,2.10
2023-03-12T14:05:10.880Z,2.22
2023-03-12T14:07:46.263Z,1.60
2023-03-12T14:10:31.545Z,1.90
2023-03-12T14:13:04.446Z,2.10
2023-03-12T14:15:43.511Z,1.85
2023-03-12T14:18:23.448Z,1.92
2023-03-12T14:20:56.655Z,2.55
2023-03-12T14:23:28.927Z,20.58
2023-03-12T14:26:03.552Z,18.42
2023-03-12T14:28:34.234Z,17.77
2023-03-12T14:31:15.251Z,12.63
2023-03-12T14:34:02.787Z,10.45
2023-03-12T14:36:56.698Z,9.38
2023-03-12T14:39:52.101Z,9.18
2023-03-12T14:42:26.277Z,7.50
2023-03-12T14:45:02.960Z,12.63
2023-03-12T14:47:29.993Z,10.63
2023-03-12T14:49:58.350Z,8.82
2023-03-12T14:52:29.857Z,7.75
2023-03-12T14:55:08.365Z,6.15
2023-03-12T14:57:35.478Z,5.03
2023-03-12T15:00:02.954Z,5.55
2023-03-12T15:02:32.223Z,4.97
2023-03-12T15:05:02.263Z,5.25
2023-03-12T15:07:39.813Z,4.25
2023-03-12T15:10:17.193Z,4.18
2023-03-12T15:12:46.358Z,3.58
2023-03-12T15:15:33.316Z,3.20
2023-03-12T15:18:00.312Z,3.30
2023-03-12T15:20:28.414Z,2.80
2023-03-12T15:22:56.129Z,2.60
2023-03-12T15:25:32.337Z,2.88
2023-03-12T15:28:05.161Z,2.83
2023-03-12T15:30:35.279Z,2.35
2023-03-12T15:33:06.770Z,1.67
2023-03-12T15:35:33.933Z,2.15
2023-03-12T15:38:02.542Z,1.63
2023-03-12T15:40:31.149Z,1.95
2023-03-12T15:43:03.522Z,1.63
2023-03-12T15:45:30.410Z,1.73
2023-03-12T15:47:57.820Z,1.55
2023-03-12T15:50:34.271Z,1.40
2023-03-12T15:53:26.113Z,1.10
2023-03-12T15:56:21.138Z,1.30
2023-03-12T15:58:58.944Z,1.13
2023-03-12T16:01:28.382Z,1.00
2023-03-12T16:03:55.999Z,1.20
2023-03-12T16:06:26.494Z,1.08
2023-03-12T16:09:04.210Z,1.30
2023-03-12T16:11:34.044Z,1.05
2023-03-12T16:14:20.633Z,1.35
2023-03-12T16:16:48.143Z,2.10
2023-03-12T16:19:17.677Z,1.30
2023-03-12T16:21:45.184Z,1.65
2023-03-12T16:24:12.270Z,1.70
2023-03-12T16:26:45.571Z,1.20
2023-03-12T16:29:16.362Z,2.38
2023-03-12T16:31:43.590Z,1.20
2023-03-12T16:34:12.462Z,2.30
2023-03-12T16:36:39.715Z,1.48
2023-03-12T16:39:06.778Z,1.17
2023-03-12T16:41:33.889Z,1.40
2023-03-12T16:44:01.599Z,1.00
2023-03-12T16:46:32.417Z,0.90
2023-03-12T16:48:59.712Z,1.08
2023-03-12T16:51:28.665Z,0.95
2023-03-12T16:54:08.435Z,1.13
2023-03-12T16:56:41.436Z,1.30
2023-03-12T16:59:17.397Z,1.33
2023-03-12T17:01:44.442Z,0.75
2023-03-12T17:04:12.097Z,1.70
2023-03-12T17:06:40.765Z,1.27
2023-03-12T17:09:09.084Z,1.95
2023-03-12T17:11:38.245Z,1.20
2023-03-12T17:14:18.666Z,1.70
2023-03-12T17:16:45.656Z,1.87
2023-03-12T17:19:12.638Z,1.67
2023-03-12T17:21:40.326Z,1.20
2023-03-12T17:24:07.789Z,1.40
2023-03-12T17:26:34.810Z,1.13
2023-03-12T17:29:01.784Z,2.00
2023-03-12T17:31:28.817Z,1.15
2023-03-12T17:33:55.932Z,0.90
2023-03-12T17:36:23.318Z,1.10
2023-03-12T17:38:51.051Z,1.00
2023-03-12T17:41:26.547Z,1.13
2023-03-12T17:43:55.250Z,1.10
2023-03-12T17:46:22.346Z,1.40
2023-03-12T17:48:49.299Z,1.27
2023-03-12T17:51:16.363Z,1.48
2023-03-12T17:53:43.333Z,6.88
2023-03-12T17:56:12.816Z,7.75
2023-03-12T17:58:40.120Z,6.70
2023-03-12T18:01:07.771Z,15.40
2023-03-12T18:03:34.735Z,16.10
2023-03-12T18:06:02.519Z,17.63
2023-03-12T18:08:29.661Z,18.33
2023-03-12T18:10:56.712Z,12.13
2023-03-12T18:13:23.689Z,13.27
2023-03-12T18:15:53.511Z,11.10
2023-03-12T18:18:21.446Z,9.23
2023-03-12T18:20:49.648Z,9.73
2023-03-12T18:23:17.247Z,12.73
2023-03-12T18:25:44.933Z,8.60
2023-03-12T18:28:12.612Z,8.77
2023-03-12T18:30:39.590Z,8.88
2023-03-12T18:33:06.666Z,7.20
2023-03-12T18:35:33.729Z,9.48
2023-03-12T18:38:00.998Z,7.45
2023-03-12T18:40:29.805Z,5.85
2023-03-12T18:43:03.777Z,5.95
2023-03-12T18:45:31.384Z,6.68
2023-03-12T18:47:58.323Z,6.45
2023-03-12T18:50:25.620Z,6.43
2023-03-12T18:52:52.615Z,7.90
2023-03-12T18:55:19.640Z,6.85
2023-03-12T18:57:48.034Z,11.18
2023-03-12T19:00:19.947Z,8.02
2023-03-12T19:02:48.456Z,8.52
2023-03-12T19:05:16.358Z,7.00
2023-03-12T19:07:43.609Z,6.60
2023-03-12T19:10:11.625Z,6.60
2023-03-12T19:12:50.864Z,5.82
2023-03-12T19:15:19.701Z,8.05
2023-03-12T19:17:46.564Z,7.30
2023-03-12T19:20:14.384Z,6.68
2023-03-12T19:22:41.643Z,7.55
2023-03-12T19:25:09.089Z,7.53
2023-03-12T19:27:36.190Z,8.27
2023-03-12T19:30:03.395Z,10.00
2023-03-12T19:32:42.228Z,10.82
2023-03-12T19:35:12.367Z,9.65
2023-03-12T19:37:39.713Z,11.27
2023-03-12T19:40:07.805Z,10.68
2023-03-12T19:42:36.665Z,11.05
2023-03-12T19:45:04.192Z,10.27
2023-03-12T19:47:33.453Z,8.73
2023-03-12T19:50:01.033Z,8.77
2023-03-12T19:52:28.298Z,8.30
2023-03-12T19:55:04.366Z,7.88
2023-03-12T19:57:33.467Z,7.68
2023-03-12T20:00:00.504Z,6.38
2023-03-12T20:02:27.876Z,7.13
2023-03-12T20:04:55.934Z,5.65
2023-03-12T20:07:23.236Z,6.53
2023-03-12T20:09:50.697Z,5.00
2023-03-12T20:12:18.168Z,4.55
2023-03-12T20:14:45.611Z,4.70
2023-03-12T20:17:13.783Z,4.03
2023-03-12T20:19:56.502Z,4.30
2023-03-12T20:22:26.063Z,3.95
2023-03-12T20:24:54.489Z,4.03
2023-03-12T20:27:21.820Z,3.50
2023-03-12T20:29:51.942Z,3.30
2023-03-12T20:32:19.841Z,3.17
2023-03-12T20:34:47.156Z,3.00
2023-03-12T20:37:14.832Z,2.75
2023-03-12T20:39:41.937Z,2.80
2023-03-12T20:42:09.178Z,2.38
2023-03-12T20:44:36.492Z,2.60
2023-03-12T20:47:03.517Z,2.10
2023-03-12T20:49:30.620Z,2.05
2023-03-12T20:51:59.396Z,2.17
2023-03-12T20:54:27.764Z,1.90
2023-03-12T20:56:54.832Z,1.90
2023-03-12T20:59:22.036Z,1.60
2023-03-12T21:01:49.086Z,1.50
2023-03-12T21:05:02.589Z,1.30
2023-03-12T21:07:30.130Z,1.30
2023-03-12T21:09:57.399Z,1.50
2023-03-12T21:12:44.897Z,1.50
2023-03-12T21:15:24.297Z,1.30
2023-03-12T21:17:52.754Z,1.33
2023-03-12T21:20:20.559Z,1.30
2023-03-12T21:22:48.106Z,1.30
2023-03-12T21:25:15.723Z,1.42
2023-03-12T21:27:50.480Z,1.00
2023-03-12T21:30:19.092Z,1.10
2023-03-12T21:32:46.621Z,1.30
2023-03-12T21:35:14.704Z,1.40
2023-03-12T21:37:41.789Z,1.23
2023-03-12T21:40:09.835Z,1.20
2023-03-12T21:42:38.274Z,1.10
2023-03-12T21:45:06.776Z,1.10
2023-03-12T21:47:37.227Z,1.40
2023-03-12T21:50:05.227Z,1.13
2023-03-12T21:52:34.793Z,1.13
2023-03-12T21:55:28.037Z,2.40
2023-03-12T21:58:00.828Z,3.15
2023-03-12T22:00:28.879Z,2.13
2023-03-12T22:02:58.332Z,1.60
2023-03-12T22:05:25.881Z,1.90
2023-03-12T22:07:53.103Z,1.40
2023-03-12T22:10:20.080Z,1.33
2023-03-12T22:12:47.159Z,2.88
2023-03-12T22:15:14.356Z,1.67
2023-03-12T22:17:41.574Z,1.35
2023-03-12T22:20:09.508Z,1.40
2023-03-12T22:22:36.874Z,1.50
2023-03-12T22:25:04.135Z,1.48
2023-03-12T22:27:31.675Z,1.60
2023-03-12T22:29:58.856Z,1.52
2023-03-12T22:32:26.080Z,1.30
2023-03-12T22:34:53.496Z,1.20
2023-03-12T22:37:21.502Z,1.63
2023-03-12T22:39:48.538Z,1.58
2023-03-12T22:42:15.473Z,1.60
2023-03-12T22:44:42.750Z,1.50
2023-03-12T22:47:09.998Z,1.27
2023-03-12T22:49:37.077Z,1.52
2023-03-12T22:52:04.268Z,1.20
2023-03-12T22:54:31.264Z,1.50
2023-03-12T22:56:58.393Z,1.40
2023-03-12T22:59:25.341Z,1.70
2023-03-12T23:01:53.025Z,1.63
2023-03-12T23:04:21.508Z,1.60
2023-03-12T23:06:48.613Z,1.60
2023-03-12T23:09:15.689Z,1.65
2023-03-12T23:11:42.547Z,1.48
2023-03-12T23:14:09.613Z,1.38
2023-03-12T23:16:36.662Z,1.65
2023-03-12T23:19:03.622Z,1.60
2023-03-12T23:21:32.986Z,1.40
2023-03-12T23:24:00.419Z,1.30
2023-03-12T23:26:29.503Z,1.30
2023-03-12T23:28:59.325Z,1.50
2023-03-12T23:31:30.482Z,1.23
2023-03-12T23:36:26.208Z,1.30
2023-03-12T23:38:53.171Z,1.20
2023-03-12T23:41:26.069Z,1.25
2023-03-12T23:43:53.685Z,1.45
2023-03-12T23:46:21.469Z,1.52
2023-03-12T23:48:48.871Z,1.27
2023-03-12T23:51:24.840Z,1.40
2023-03-12T23:53:55.501Z,1.30
2023-03-12T23:56:24.976Z,1.30
2023-03-12T23:58:52.190Z,1.33
